Startpagina
METAR-TAF:

METAR-TAF

Vliegvelden :

Luchthaven Bujumbura

Bujumbura, Burundi

breedte: 03-19S, lengte: 029-19E, hoogte: 782 m

METAR: ontbreekt

Tijdstip: 18:58 (16:58 UTC)

Verwachting

Dit bericht is 6 uur en het 58 minuten geleden gemaakt, om 10:00 UTC
Verwachting geldig van 15 om 12 UTC tot 16 om 18 UTC
Wind 15 kt uit het zuiden met uitschieters tot 30 kt
Zicht: 7000 m
Weinig wolken op 3500 ft
Van 15 om 1600 UTC
Wind 10 kt uit het zuiden
Zicht: 8000 m

TAF: HBBA 151000Z 1512/1618 18015G30KT 7000 FEW035 FM151600 18010KT 8000 NSC BECMG1518/1520 00000KT 1607/1609 18015G15G25KT 5000HZ NSC 18010KT 8000 NSC

Waarnemingen en weersverwachtingen van meer dan 4000 vliegvelden (METAR en TAF).

De beschikbare stations zijn de gele en rode punten op de kaart.

Ga met uw muis naar het station om de naam te zien.

Klik dan om waarnemingen en weersverwachtingen te zien.

kaart wijzigen: klik op de groene knoppen met een zwart kruis om in te zoomen, op de groene knop met een streepje om uit te zoomen of op de groene pijlen voor aangrenzende kaarten.


METAR-TAF: